sensor_id;sensor_type;location;lat;lon;timestamp;temperature;humidity
78536;SHT31;67829;51.968;5.684;2024-02-15T00:00:48;14.5;78.9
78536;SHT31;67829;51.968;5.684;2024-02-15T00:03:17;14.5;78.9
78536;SHT31;67829;51.968;5.684;2024-02-15T00:05:46;14.5;78.8
78536;SHT31;67829;51.968;5.684;2024-02-15T00:08:16;14.5;78.8
78536;SHT31;67829;51.968;5.684;2024-02-15T00:10:48;14.5;78.7
78536;SHT31;67829;51.968;5.684;2024-02-15T00:13:17;14.5;78.7
78536;SHT31;67829;51.968;5.684;2024-02-15T00:15:46;14.5;78.6
78536;SHT31;67829;51.968;5.684;2024-02-15T00:18:16;14.5;78.6
78536;SHT31;67829;51.968;5.684;2024-02-15T00:20:47;14.5;78.7
78536;SHT31;67829;51.968;5.684;2024-02-15T00:23:15;14.5;78.6
78536;SHT31;67829;51.968;5.684;2024-02-15T00:25:44;14.5;78.5
78536;SHT31;67829;51.968;5.684;2024-02-15T00:28:13;14.5;78.4
78536;SHT31;67829;51.968;5.684;2024-02-15T00:30:42;14.5;78.3
78536;SHT31;67829;51.968;5.684;2024-02-15T00:33:12;14.6;78.2
78536;SHT31;67829;51.968;5.684;2024-02-15T00:35:40;14.6;78.1
78536;SHT31;67829;51.968;5.684;2024-02-15T00:38:11;14.6;78.1
78536;SHT31;67829;51.968;5.684;2024-02-15T00:40:40;14.6;78.1
78536;SHT31;67829;51.968;5.684;2024-02-15T00:43:09;14.6;78.2
78536;SHT31;67829;51.968;5.684;2024-02-15T00:45:37;14.6;78.2
78536;SHT31;67829;51.968;5.684;2024-02-15T00:48:08;14.6;78.2
78536;SHT31;67829;51.968;5.684;2024-02-15T00:50:36;14.6;78.3
78536;SHT31;67829;51.968;5.684;2024-02-15T00:53:06;14.6;78.2
78536;SHT31;67829;51.968;5.684;2024-02-15T00:55:34;14.6;78.2
78536;SHT31;67829;51.968;5.684;2024-02-15T00:58:03;14.6;78.1
78536;SHT31;67829;51.968;5.684;2024-02-15T01:00:32;14.6;78.1
78536;SHT31;67829;51.968;5.684;2024-02-15T01:03:01;14.6;78.1
78536;SHT31;67829;51.968;5.684;2024-02-15T01:05:30;14.6;78.1
78536;SHT31;67829;51.968;5.684;2024-02-15T01:08:00;14.6;78.0
78536;SHT31;67829;51.968;5.684;2024-02-15T01:10:29;14.6;78.0
78536;SHT31;67829;51.968;5.684;2024-02-15T01:12:57;14.6;77.9
78536;SHT31;67829;51.968;5.684;2024-02-15T01:15:26;14.6;77.9
78536;SHT31;67829;51.968;5.684;2024-02-15T01:17:54;14.6;77.9
78536;SHT31;67829;51.968;5.684;2024-02-15T01:20:23;14.6;77.9
78536;SHT31;67829;51.968;5.684;2024-02-15T01:22:52;14.6;77.4
78536;SHT31;67829;51.968;5.684;2024-02-15T01:25:20;14.6;77.2
78536;SHT31;67829;51.968;5.684;2024-02-15T01:27:49;14.6;77.2
78536;SHT31;67829;51.968;5.684;2024-02-15T01:30:18;14.6;77.3
78536;SHT31;67829;51.968;5.684;2024-02-15T01:32:47;14.6;77.1
78536;SHT31;67829;51.968;5.684;2024-02-15T01:35:15;14.6;77.1
78536;SHT31;67829;51.968;5.684;2024-02-15T01:37:44;14.6;77.1
78536;SHT31;67829;51.968;5.684;2024-02-15T01:40:13;14.6;77.2
78536;SHT31;67829;51.968;5.684;2024-02-15T01:42:43;14.6;77.2
78536;SHT31;67829;51.968;5.684;2024-02-15T01:45:12;14.6;77.0
78536;SHT31;67829;51.968;5.684;2024-02-15T01:47:42;14.6;76.9
78536;SHT31;67829;51.968;5.684;2024-02-15T01:50:12;14.6;76.9
78536;SHT31;67829;51.968;5.684;2024-02-15T01:52:45;14.6;77.0
78536;SHT31;67829;51.968;5.684;2024-02-15T01:55:17;14.6;76.9
78536;SHT31;67829;51.968;5.684;2024-02-15T01:57:48;14.6;77.0
78536;SHT31;67829;51.968;5.684;2024-02-15T02:00:18;14.6;77.0
78536;SHT31;67829;51.968;5.684;2024-02-15T02:02:47;14.6;77.0
78536;SHT31;67829;51.968;5.684;2024-02-15T02:05:16;14.6;76.9
78536;SHT31;67829;51.968;5.684;2024-02-15T02:07:45;14.6;76.9
78536;SHT31;67829;51.968;5.684;2024-02-15T02:10:14;14.6;76.8
78536;SHT31;67829;51.968;5.684;2024-02-15T02:12:43;14.6;76.8
78536;SHT31;67829;51.968;5.684;2024-02-15T02:15:12;14.6;76.7
78536;SHT31;67829;51.968;5.684;2024-02-15T02:17:41;14.6;76.6
78536;SHT31;67829;51.968;5.684;2024-02-15T02:20:10;14.6;76.6
78536;SHT31;67829;51.968;5.684;2024-02-15T02:22:41;14.7;76.3
78536;SHT31;67829;51.968;5.684;2024-02-15T02:25:12;14.7;76.4
78536;SHT31;67829;51.968;5.684;2024-02-15T02:27:41;14.7;76.6
78536;SHT31;67829;51.968;5.684;2024-02-15T02:30:15;14.7;76.8
78536;SHT31;67829;51.968;5.684;2024-02-15T02:32:46;14.7;76.8
78536;SHT31;67829;51.968;5.684;2024-02-15T02:35:15;14.7;76.7
78536;SHT31;67829;51.968;5.684;2024-02-15T02:37:44;14.7;76.7
78536;SHT31;67829;51.968;5.684;2024-02-15T02:40:13;14.7;76.7
78536;SHT31;67829;51.968;5.684;2024-02-15T02:42:53;14.7;76.6
78536;SHT31;67829;51.968;5.684;2024-02-15T02:45:23;14.7;76.5
78536;SHT31;67829;51.968;5.684;2024-02-15T02:47:53;14.6;76.5
78536;SHT31;67829;51.968;5.684;2024-02-15T02:50:22;14.6;76.4
78536;SHT31;67829;51.968;5.684;2024-02-15T02:52:52;14.6;76.4
78536;SHT31;67829;51.968;5.684;2024-02-15T02:55:20;14.6;76.4
78536;SHT31;67829;51.968;5.684;2024-02-15T02:57:48;14.6;76.5
78536;SHT31;67829;51.968;5.684;2024-02-15T03:00:20;14.6;76.6
78536;SHT31;67829;51.968;5.684;2024-02-15T03:02:49;14.6;76.6
78536;SHT31;67829;51.968;5.684;2024-02-15T03:05:18;14.6;76.5
78536;SHT31;67829;51.968;5.684;2024-02-15T03:07:47;14.6;76.5
78536;SHT31;67829;51.968;5.684;2024-02-15T03:10:18;14.6;76.5
78536;SHT31;67829;51.968;5.684;2024-02-15T03:12:47;14.6;76.6
78536;SHT31;67829;51.968;5.684;2024-02-15T03:15:16;14.6;76.7
78536;SHT31;67829;51.968;5.684;2024-02-15T03:17:47;14.6;76.8
78536;SHT31;67829;51.968;5.684;2024-02-15T03:20:16;14.6;76.8
78536;SHT31;67829;51.968;5.684;2024-02-15T03:22:54;14.6;76.7
78536;SHT31;67829;51.968;5.684;2024-02-15T03:25:23;14.6;76.6
78536;SHT31;67829;51.968;5.684;2024-02-15T03:27:53;14.6;76.6
78536;SHT31;67829;51.968;5.684;2024-02-15T03:30:24;14.6;76.6
78536;SHT31;67829;51.968;5.684;2024-02-15T03:32:55;14.6;76.4
78536;SHT31;67829;51.968;5.684;2024-02-15T03:35:25;14.6;76.5
78536;SHT31;67829;51.968;5.684;2024-02-15T03:37:54;14.6;76.5
78536;SHT31;67829;51.968;5.684;2024-02-15T03:40:23;14.5;76.3
78536;SHT31;67829;51.968;5.684;2024-02-15T03:42:53;14.5;76.3
78536;SHT31;67829;51.968;5.684;2024-02-15T03:45:23;14.5;76.3
78536;SHT31;67829;51.968;5.684;2024-02-15T03:47:52;14.5;76.3
78536;SHT31;67829;51.968;5.684;2024-02-15T03:50:23;14.5;76.4
78536;SHT31;67829;51.968;5.684;2024-02-15T03:52:54;14.5;76.4
78536;SHT31;67829;51.968;5.684;2024-02-15T03:55:22;14.5;76.3
78536;SHT31;67829;51.968;5.684;2024-02-15T03:57:54;14.5;76.3
78536;SHT31;67829;51.968;5.684;2024-02-15T04:00:24;14.5;76.2
78536;SHT31;67829;51.968;5.684;2024-02-15T04:02:52;14.5;76.2
78536;SHT31;67829;51.968;5.684;2024-02-15T04:05:23;14.5;76.1
78536;SHT31;67829;51.968;5.684;2024-02-15T04:07:52;14.5;76.0
78536;SHT31;67829;51.968;5.684;2024-02-15T04:10:21;14.5;76.0
78536;SHT31;67829;51.968;5.684;2024-02-15T04:12:50;14.5;76.2
78536;SHT31;67829;51.968;5.684;2024-02-15T04:15:20;14.5;76.3
78536;SHT31;67829;51.968;5.684;2024-02-15T04:17:51;14.5;76.3
78536;SHT31;67829;51.968;5.684;2024-02-15T04:20:22;14.5;76.4
78536;SHT31;67829;51.968;5.684;2024-02-15T04:22:51;14.5;76.5
78536;SHT31;67829;51.968;5.684;2024-02-15T04:25:21;14.5;76.4
78536;SHT31;67829;51.968;5.684;2024-02-15T04:27:54;14.5;76.4
78536;SHT31;67829;51.968;5.684;2024-02-15T04:30:24;14.5;76.2
78536;SHT31;67829;51.968;5.684;2024-02-15T04:32:52;14.5;76.1
78536;SHT31;67829;51.968;5.684;2024-02-15T04:35:21;14.5;76.1
78536;SHT31;67829;51.968;5.684;2024-02-15T04:37:50;14.5;76.2
78536;SHT31;67829;51.968;5.684;2024-02-15T04:40:19;14.5;76.0
78536;SHT31;67829;51.968;5.684;2024-02-15T04:42:48;14.5;75.5
78536;SHT31;67829;51.968;5.684;2024-02-15T04:45:16;14.5;75.4
78536;SHT31;67829;51.968;5.684;2024-02-15T04:47:47;14.5;75.4
78536;SHT31;67829;51.968;5.684;2024-02-15T04:50:19;14.5;75.5
78536;SHT31;67829;51.968;5.684;2024-02-15T04:52:48;14.5;75.5
78536;SHT31;67829;51.968;5.684;2024-02-15T04:55:17;14.5;75.6
78536;SHT31;67829;51.968;5.684;2024-02-15T04:57:46;14.5;75.8
78536;SHT31;67829;51.968;5.684;2024-02-15T05:00:16;14.5;75.8
78536;SHT31;67829;51.968;5.684;2024-02-15T05:02:47;14.5;75.8
78536;SHT31;67829;51.968;5.684;2024-02-15T05:05:16;14.5;75.9
78536;SHT31;67829;51.968;5.684;2024-02-15T05:07:44;14.5;75.8
78536;SHT31;67829;51.968;5.684;2024-02-15T05:10:15;14.5;75.9
78536;SHT31;67829;51.968;5.684;2024-02-15T05:12:44;14.5;76.0
78536;SHT31;67829;51.968;5.684;2024-02-15T05:15:15;14.5;76.1
78536;SHT31;67829;51.968;5.684;2024-02-15T05:17:44;14.5;76.1
78536;SHT31;67829;51.968;5.684;2024-02-15T05:20:15;14.5;76.2
78536;SHT31;67829;51.968;5.684;2024-02-15T05:22:49;14.5;76.2
78536;SHT31;67829;51.968;5.684;2024-02-15T05:25:18;14.5;76.2
78536;SHT31;67829;51.968;5.684;2024-02-15T05:27:53;14.5;76.2
78536;SHT31;67829;51.968;5.684;2024-02-15T05:30:22;14.5;76.3
78536;SHT31;67829;51.968;5.684;2024-02-15T05:32:50;14.4;76.3
78536;SHT31;67829;51.968;5.684;2024-02-15T05:35:19;14.4;76.5
78536;SHT31;67829;51.968;5.684;2024-02-15T05:37:48;14.4;76.5
78536;SHT31;67829;51.968;5.684;2024-02-15T05:40:19;14.4;76.7
78536;SHT31;67829;51.968;5.684;2024-02-15T05:42:47;14.4;76.6
78536;SHT31;67829;51.968;5.684;2024-02-15T05:45:31;14.4;76.8
78536;SHT31;67829;51.968;5.684;2024-02-15T05:48:06;14.4;77.0
78536;SHT31;67829;51.968;5.684;2024-02-15T05:50:36;14.4;77.2
78536;SHT31;67829;51.968;5.684;2024-02-15T05:53:05;14.4;77.1
78536;SHT31;67829;51.968;5.684;2024-02-15T05:55:34;14.4;77.5
78536;SHT31;67829;51.968;5.684;2024-02-15T05:58:07;14.5;77.6
78536;SHT31;67829;51.968;5.684;2024-02-15T06:00:37;14.5;77.4
78536;SHT31;67829;51.968;5.684;2024-02-15T06:03:07;14.5;77.4
78536;SHT31;67829;51.968;5.684;2024-02-15T06:05:35;14.5;77.4
78536;SHT31;67829;51.968;5.684;2024-02-15T06:08:05;14.5;77.3
78536;SHT31;67829;51.968;5.684;2024-02-15T06:10:34;14.5;77.3
78536;SHT31;67829;51.968;5.684;2024-02-15T06:13:05;14.5;77.3
78536;SHT31;67829;51.968;5.684;2024-02-15T06:15:35;14.5;77.4
78536;SHT31;67829;51.968;5.684;2024-02-15T06:18:05;14.5;77.4
78536;SHT31;67829;51.968;5.684;2024-02-15T06:20:36;14.5;77.4
78536;SHT31;67829;51.968;5.684;2024-02-15T06:23:06;14.5;77.4
78536;SHT31;67829;51.968;5.684;2024-02-15T06:25:35;14.5;77.4
78536;SHT31;67829;51.968;5.684;2024-02-15T06:28:05;14.5;77.3
78536;SHT31;67829;51.968;5.684;2024-02-15T06:30:40;14.5;77.3
78536;SHT31;67829;51.968;5.684;2024-02-15T06:33:25;14.5;77.4
78536;SHT31;67829;51.968;5.684;2024-02-15T06:38:01;14.5;77.5
78536;SHT31;67829;51.968;5.684;2024-02-15T06:40:46;14.5;77.5
78536;SHT31;67829;51.968;5.684;2024-02-15T06:43:14;14.5;77.6
78536;SHT31;67829;51.968;5.684;2024-02-15T06:45:42;14.5;77.6
78536;SHT31;67829;51.968;5.684;2024-02-15T06:48:13;14.5;77.6
78536;SHT31;67829;51.968;5.684;2024-02-15T06:50:41;14.5;77.5
78536;SHT31;67829;51.968;5.684;2024-02-15T06:53:10;14.5;77.5
78536;SHT31;67829;51.968;5.684;2024-02-15T06:55:39;14.5;77.5
78536;SHT31;67829;51.968;5.684;2024-02-15T06:58:10;14.5;77.5
78536;SHT31;67829;51.968;5.684;2024-02-15T07:00:42;14.5;77.7
78536;SHT31;67829;51.968;5.684;2024-02-15T07:03:11;14.5;77.7
78536;SHT31;67829;51.968;5.684;2024-02-15T07:05:41;14.5;77.6
78536;SHT31;67829;51.968;5.684;2024-02-15T07:08:10;14.5;77.6
78536;SHT31;67829;51.968;5.684;2024-02-15T07:10:39;14.5;77.6
78536;SHT31;67829;51.968;5.684;2024-02-15T07:13:08;14.5;77.6
78536;SHT31;67829;51.968;5.684;2024-02-15T07:15:36;14.5;77.5
78536;SHT31;67829;51.968;5.684;2024-02-15T07:18:06;14.5;77.5
78536;SHT31;67829;51.968;5.684;2024-02-15T07:20:36;14.5;77.5
78536;SHT31;67829;51.968;5.684;2024-02-15T07:23:05;14.6;77.6
78536;SHT31;67829;51.968;5.684;2024-02-15T07:25:34;14.6;77.6
78536;SHT31;67829;51.968;5.684;2024-02-15T07:28:06;14.6;77.6
78536;SHT31;67829;51.968;5.684;2024-02-15T07:30:36;14.6;77.6
78536;SHT31;67829;51.968;5.684;2024-02-15T07:33:05;14.6;77.6
78536;SHT31;67829;51.968;5.684;2024-02-15T07:35:34;14.6;77.6
78536;SHT31;67829;51.968;5.684;2024-02-15T07:38:05;14.6;77.6
78536;SHT31;67829;51.968;5.684;2024-02-15T07:40:33;14.6;77.7
78536;SHT31;67829;51.968;5.684;2024-02-15T07:43:02;14.6;77.7
78536;SHT31;67829;51.968;5.684;2024-02-15T07:45:33;14.6;77.7
78536;SHT31;67829;51.968;5.684;2024-02-15T07:48:04;14.6;77.7
78536;SHT31;67829;51.968;5.684;2024-02-15T07:50:33;14.6;77.7
78536;SHT31;67829;51.968;5.684;2024-02-15T07:53:03;14.6;77.1
78536;SHT31;67829;51.968;5.684;2024-02-15T07:55:34;14.6;77.1
78536;SHT31;67829;51.968;5.684;2024-02-15T07:58:04;14.6;77.1
78536;SHT31;67829;51.968;5.684;2024-02-15T08:00:33;14.6;77.1
78536;SHT31;67829;51.968;5.684;2024-02-15T08:03:01;14.6;77.2
78536;SHT31;67829;51.968;5.684;2024-02-15T08:05:32;14.6;77.2
78536;SHT31;67829;51.968;5.684;2024-02-15T08:08:02;14.6;77.2
78536;SHT31;67829;51.968;5.684;2024-02-15T08:10:31;14.6;77.2
78536;SHT31;67829;51.968;5.684;2024-02-15T08:13:00;14.6;77.3
78536;SHT31;67829;51.968;5.684;2024-02-15T08:15:28;14.6;77.4
78536;SHT31;67829;51.968;5.684;2024-02-15T08:17:58;14.6;77.5
78536;SHT31;67829;51.968;5.684;2024-02-15T08:20:31;14.6;77.4
78536;SHT31;67829;51.968;5.684;2024-02-15T08:23:00;14.6;77.6
78536;SHT31;67829;51.968;5.684;2024-02-15T08:25:29;14.6;77.6
78536;SHT31;67829;51.968;5.684;2024-02-15T08:27:59;14.6;77.6
78536;SHT31;67829;51.968;5.684;2024-02-15T08:30:32;14.6;77.7
78536;SHT31;67829;51.968;5.684;2024-02-15T08:33:00;14.6;77.6
78536;SHT31;67829;51.968;5.684;2024-02-15T08:35:28;14.6;77.4
78536;SHT31;67829;51.968;5.684;2024-02-15T08:37:58;14.6;77.5
78536;SHT31;67829;51.968;5.684;2024-02-15T08:40:31;14.7;77.4
78536;SHT31;67829;51.968;5.684;2024-02-15T08:43:01;14.7;77.4
78536;SHT31;67829;51.968;5.684;2024-02-15T08:45:30;14.7;77.4
78536;SHT31;67829;51.968;5.684;2024-02-15T08:47:59;14.7;77.6
78536;SHT31;67829;51.968;5.684;2024-02-15T08:50:31;14.7;77.6
78536;SHT31;67829;51.968;5.684;2024-02-15T08:52:59;14.7;77.5
78536;SHT31;67829;51.968;5.684;2024-02-15T08:55:34;14.7;77.4
78536;SHT31;67829;51.968;5.684;2024-02-15T08:58:03;14.7;77.6
78536;SHT31;67829;51.968;5.684;2024-02-15T09:00:32;14.8;77.5
78536;SHT31;67829;51.968;5.684;2024-02-15T09:03:00;14.8;77.4
78536;SHT31;67829;51.968;5.684;2024-02-15T09:05:31;14.8;77.4
78536;SHT31;67829;51.968;5.684;2024-02-15T09:08:00;14.8;77.6
78536;SHT31;67829;51.968;5.684;2024-02-15T09:10:32;14.8;77.6
78536;SHT31;67829;51.968;5.684;2024-02-15T09:13:03;14.8;77.6
78536;SHT31;67829;51.968;5.684;2024-02-15T09:15:32;14.8;77.5
78536;SHT31;67829;51.968;5.684;2024-02-15T09:18:02;14.8;77.6
78536;SHT31;67829;51.968;5.684;2024-02-15T09:20:31;14.8;77.5
78536;SHT31;67829;51.968;5.684;2024-02-15T09:23:00;14.8;77.6
78536;SHT31;67829;51.968;5.684;2024-02-15T09:25:37;14.8;77.7
78536;SHT31;67829;51.968;5.684;2024-02-15T09:28:08;14.8;77.7
78536;SHT31;67829;51.968;5.684;2024-02-15T09:30:37;14.9;77.8
78536;SHT31;67829;51.968;5.684;2024-02-15T09:33:05;14.9;77.9
78536;SHT31;67829;51.968;5.684;2024-02-15T09:35:35;14.9;77.8
78536;SHT31;67829;51.968;5.684;2024-02-15T09:38:05;14.9;77.7
78536;SHT31;67829;51.968;5.684;2024-02-15T09:40:36;14.9;77.8
78536;SHT31;67829;51.968;5.684;2024-02-15T09:43:07;14.9;77.8
78536;SHT31;67829;51.968;5.684;2024-02-15T09:45:36;14.9;77.7
78536;SHT31;67829;51.968;5.684;2024-02-15T09:48:09;14.9;77.7
78536;SHT31;67829;51.968;5.684;2024-02-15T09:50:39;14.9;77.6
78536;SHT31;67829;51.968;5.684;2024-02-15T09:53:11;14.9;77.5
78536;SHT31;67829;51.968;5.684;2024-02-15T09:55:42;14.9;77.4
78536;SHT31;67829;51.968;5.684;2024-02-15T09:58:12;14.9;77.4
78536;SHT31;67829;51.968;5.684;2024-02-15T10:00:41;14.9;77.4
78536;SHT31;67829;51.968;5.684;2024-02-15T10:03:18;14.9;77.4
78536;SHT31;67829;51.968;5.684;2024-02-15T10:05:49;14.9;77.4
78536;SHT31;67829;51.968;5.684;2024-02-15T10:08:17;14.9;77.2
78536;SHT31;67829;51.968;5.684;2024-02-15T10:10:48;14.9;77.2
78536;SHT31;67829;51.968;5.684;2024-02-15T10:13:23;14.9;77.1
78536;SHT31;67829;51.968;5.684;2024-02-15T10:15:51;14.9;77.1
78536;SHT31;67829;51.968;5.684;2024-02-15T10:18:20;15.0;77.0
78536;SHT31;67829;51.968;5.684;2024-02-15T10:20:58;15.0;76.9
78536;SHT31;67829;51.968;5.684;2024-02-15T10:23:27;15.0;76.7
78536;SHT31;67829;51.968;5.684;2024-02-15T10:25:56;15.0;76.7
78536;SHT31;67829;51.968;5.684;2024-02-15T10:28:24;15.0;76.6
78536;SHT31;67829;51.968;5.684;2024-02-15T10:30:55;15.0;76.7
78536;SHT31;67829;51.968;5.684;2024-02-15T10:33:29;15.0;76.8
78536;SHT31;67829;51.968;5.684;2024-02-15T10:36:08;15.1;77.0
78536;SHT31;67829;51.968;5.684;2024-02-15T10:38:38;15.1;77.1
78536;SHT31;67829;51.968;5.684;2024-02-15T10:41:08;15.1;77.1
78536;SHT31;67829;51.968;5.684;2024-02-15T10:43:41;15.1;76.8
78536;SHT31;67829;51.968;5.684;2024-02-15T10:46:11;15.1;76.9
78536;SHT31;67829;51.968;5.684;2024-02-15T10:48:41;15.1;77.0
78536;SHT31;67829;51.968;5.684;2024-02-15T10:51:14;15.1;77.1
78536;SHT31;67829;51.968;5.684;2024-02-15T10:53:49;15.1;77.1
78536;SHT31;67829;51.968;5.684;2024-02-15T10:56:28;15.2;77.2
78536;SHT31;67829;51.968;5.684;2024-02-15T10:59:10;15.2;77.0
78536;SHT31;67829;51.968;5.684;2024-02-15T11:01:40;15.2;76.5
78536;SHT31;67829;51.968;5.684;2024-02-15T11:04:14;15.3;76.1
78536;SHT31;67829;51.968;5.684;2024-02-15T11:06:43;15.3;76.2
78536;SHT31;67829;51.968;5.684;2024-02-15T11:09:14;15.3;76.0
78536;SHT31;67829;51.968;5.684;2024-02-15T11:11:43;15.3;76.1
78536;SHT31;67829;51.968;5.684;2024-02-15T11:14:37;15.3;76.2
78536;SHT31;67829;51.968;5.684;2024-02-15T11:17:05;15.4;75.9
78536;SHT31;67829;51.968;5.684;2024-02-15T11:19:45;15.4;75.8
78536;SHT31;67829;51.968;5.684;2024-02-15T11:22:16;15.4;75.9
78536;SHT31;67829;51.968;5.684;2024-02-15T11:24:49;15.4;76.1
78536;SHT31;67829;51.968;5.684;2024-02-15T11:27:29;15.4;76.1
78536;SHT31;67829;51.968;5.684;2024-02-15T11:29:59;15.5;75.8
78536;SHT31;67829;51.968;5.684;2024-02-15T11:32:39;15.5;75.7
78536;SHT31;67829;51.968;5.684;2024-02-15T11:35:12;15.5;75.7
78536;SHT31;67829;51.968;5.684;2024-02-15T11:37:54;15.5;75.9
78536;SHT31;67829;51.968;5.684;2024-02-15T11:40:26;15.6;75.6
78536;SHT31;67829;51.968;5.684;2024-02-15T11:42:56;15.6;75.7
78536;SHT31;67829;51.968;5.684;2024-02-15T11:45:27;15.6;75.5
78536;SHT31;67829;51.968;5.684;2024-02-15T11:48:01;15.7;75.6
78536;SHT31;67829;51.968;5.684;2024-02-15T11:50:34;15.7;75.6
78536;SHT31;67829;51.968;5.684;2024-02-15T11:53:05;15.8;75.2
78536;SHT31;67829;51.968;5.684;2024-02-15T11:55:36;15.8;75.1
78536;SHT31;67829;51.968;5.684;2024-02-15T11:58:07;15.8;75.3
78536;SHT31;67829;51.968;5.684;2024-02-15T12:00:45;15.8;75.3
78536;SHT31;67829;51.968;5.684;2024-02-15T12:03:29;15.9;75.3
78536;SHT31;67829;51.968;5.684;2024-02-15T12:06:18;15.9;75.3
78536;SHT31;67829;51.968;5.684;2024-02-15T12:09:03;16.0;75.1
78536;SHT31;67829;51.968;5.684;2024-02-15T12:11:47;16.0;75.3
78536;SHT31;67829;51.968;5.684;2024-02-15T12:14:37;16.0;75.6
78536;SHT31;67829;51.968;5.684;2024-02-15T12:17:25;16.1;75.5
78536;SHT31;67829;51.968;5.684;2024-02-15T12:20:11;16.1;74.6
78536;SHT31;67829;51.968;5.684;2024-02-15T12:22:44;16.2;74.5
78536;SHT31;67829;51.968;5.684;2024-02-15T12:25:16;16.2;74.5
78536;SHT31;67829;51.968;5.684;2024-02-15T12:27:54;16.2;74.8
78536;SHT31;67829;51.968;5.684;2024-02-15T12:30:24;16.3;74.7
78536;SHT31;67829;51.968;5.684;2024-02-15T12:33:10;16.3;74.4
78536;SHT31;67829;51.968;5.684;2024-02-15T12:35:41;16.4;74.5
78536;SHT31;67829;51.968;5.684;2024-02-15T12:38:12;16.4;74.4
78536;SHT31;67829;51.968;5.684;2024-02-15T12:40:43;16.5;73.9
78536;SHT31;67829;51.968;5.684;2024-02-15T12:43:13;16.5;74.0
78536;SHT31;67829;51.968;5.684;2024-02-15T12:45:42;16.5;74.2
78536;SHT31;67829;51.968;5.684;2024-02-15T12:48:11;16.6;73.6
78536;SHT31;67829;51.968;5.684;2024-02-15T12:50:42;16.6;73.8
78536;SHT31;67829;51.968;5.684;2024-02-15T12:53:10;16.6;74.0
78536;SHT31;67829;51.968;5.684;2024-02-15T12:55:39;16.7;73.7
78536;SHT31;67829;51.968;5.684;2024-02-15T12:58:13;16.7;73.5
78536;SHT31;67829;51.968;5.684;2024-02-15T13:00:45;16.8;72.7
78536;SHT31;67829;51.968;5.684;2024-02-15T13:03:15;16.8;72.9
78536;SHT31;67829;51.968;5.684;2024-02-15T13:05:44;16.8;72.2
78536;SHT31;67829;51.968;5.684;2024-02-15T13:08:15;16.9;72.3
78536;SHT31;67829;51.968;5.684;2024-02-15T13:10:44;16.9;72.6
78536;SHT31;67829;51.968;5.684;2024-02-15T13:13:13;16.9;72.2
78536;SHT31;67829;51.968;5.684;2024-02-15T13:15:43;17.0;71.9
78536;SHT31;67829;51.968;5.684;2024-02-15T13:18:13;17.0;71.4
78536;SHT31;67829;51.968;5.684;2024-02-15T13:20:41;17.0;71.5
78536;SHT31;67829;51.968;5.684;2024-02-15T13:23:11;17.1;70.6
78536;SHT31;67829;51.968;5.684;2024-02-15T13:25:48;17.1;70.0
78536;SHT31;67829;51.968;5.684;2024-02-15T13:28:18;17.1;70.9
78536;SHT31;67829;51.968;5.684;2024-02-15T13:30:47;17.1;69.9
78536;SHT31;67829;51.968;5.684;2024-02-15T13:33:18;17.2;70.7
78536;SHT31;67829;51.968;5.684;2024-02-15T13:35:46;17.2;70.0
78536;SHT31;67829;51.968;5.684;2024-02-15T13:38:16;17.3;70.0
78536;SHT31;67829;51.968;5.684;2024-02-15T13:40:49;17.3;69.7
78536;SHT31;67829;51.968;5.684;2024-02-15T13:43:18;17.3;69.4
78536;SHT31;67829;51.968;5.684;2024-02-15T13:45:46;17.3;68.7
78536;SHT31;67829;51.968;5.684;2024-02-15T13:48:15;17.3;68.7
78536;SHT31;67829;51.968;5.684;2024-02-15T13:50:46;17.4;69.0
78536;SHT31;67829;51.968;5.684;2024-02-15T13:53:14;17.4;68.7
78536;SHT31;67829;51.968;5.684;2024-02-15T13:55:44;17.4;68.5
78536;SHT31;67829;51.968;5.684;2024-02-15T13:58:14;17.4;68.4
78536;SHT31;67829;51.968;5.684;2024-02-15T14:00:43;17.4;68.6
78536;SHT31;67829;51.968;5.684;2024-02-15T14:03:12;17.4;68.6
78536;SHT31;67829;51.968;5.684;2024-02-15T14:05:41;17.4;68.1
78536;SHT31;67829;51.968;5.684;2024-02-15T14:08:14;17.4;68.5
78536;SHT31;67829;51.968;5.684;2024-02-15T14:10:45;17.4;68.3
78536;SHT31;67829;51.968;5.684;2024-02-15T14:13:14;17.4;67.9
78536;SHT31;67829;51.968;5.684;2024-02-15T14:15:43;17.4;68.8
78536;SHT31;67829;51.968;5.684;2024-02-15T14:18:12;17.3;68.6
78536;SHT31;67829;51.968;5.684;2024-02-15T14:20:45;17.3;68.7
78536;SHT31;67829;51.968;5.684;2024-02-15T14:23:15;17.3;68.8
78536;SHT31;67829;51.968;5.684;2024-02-15T14:25:46;17.3;68.5
78536;SHT31;67829;51.968;5.684;2024-02-15T14:28:16;17.3;69.2
78536;SHT31;67829;51.968;5.684;2024-02-15T14:30:45;17.3;68.9
78536;SHT31;67829;51.968;5.684;2024-02-15T14:33:29;17.3;68.6
78536;SHT31;67829;51.968;5.684;2024-02-15T14:35:59;17.3;68.7
78536;SHT31;67829;51.968;5.684;2024-02-15T14:38:27;17.3;69.1
78536;SHT31;67829;51.968;5.684;2024-02-15T14:40:55;17.3;69.4
78536;SHT31;67829;51.968;5.684;2024-02-15T14:43:26;17.3;69.2
78536;SHT31;67829;51.968;5.684;2024-02-15T14:45:57;17.2;69.0
78536;SHT31;67829;51.968;5.684;2024-02-15T14:48:28;17.2;69.4
78536;SHT31;67829;51.968;5.684;2024-02-15T14:50:57;17.2;69.5
78536;SHT31;67829;51.968;5.684;2024-02-15T14:53:26;17.2;69.2
78536;SHT31;67829;51.968;5.684;2024-02-15T14:55:55;17.2;69.3
78536;SHT31;67829;51.968;5.684;2024-02-15T14:58:24;17.2;69.2
78536;SHT31;67829;51.968;5.684;2024-02-15T15:00:55;17.2;69.2
78536;SHT31;67829;51.968;5.684;2024-02-15T15:03:24;17.2;69.2
78536;SHT31;67829;51.968;5.684;2024-02-15T15:05:53;17.2;69.0
78536;SHT31;67829;51.968;5.684;2024-02-15T15:08:37;17.2;69.2
78536;SHT31;67829;51.968;5.684;2024-02-15T15:11:22;17.2;69.1
78536;SHT31;67829;51.968;5.684;2024-02-15T15:14:09;17.2;69.0
78536;SHT31;67829;51.968;5.684;2024-02-15T15:16:38;17.2;68.5
78536;SHT31;67829;51.968;5.684;2024-02-15T15:19:06;17.2;68.4
78536;SHT31;67829;51.968;5.684;2024-02-15T15:21:35;17.2;68.2
78536;SHT31;67829;51.968;5.684;2024-02-15T15:24:04;17.2;68.3
78536;SHT31;67829;51.968;5.684;2024-02-15T15:26:32;17.2;68.3
78536;SHT31;67829;51.968;5.684;2024-02-15T15:29:01;17.2;68.3
78536;SHT31;67829;51.968;5.684;2024-02-15T15:31:32;17.2;68.4
78536;SHT31;67829;51.968;5.684;2024-02-15T15:34:01;17.2;68.3
78536;SHT31;67829;51.968;5.684;2024-02-15T15:36:30;17.2;68.5
78536;SHT31;67829;51.968;5.684;2024-02-15T15:38:59;17.2;68.4
78536;SHT31;67829;51.968;5.684;2024-02-15T15:41:32;17.2;68.1
78536;SHT31;67829;51.968;5.684;2024-02-15T15:44:00;17.2;68.1
78536;SHT31;67829;51.968;5.684;2024-02-15T15:46:31;17.2;68.3
78536;SHT31;67829;51.968;5.684;2024-02-15T15:49:02;17.2;68.5
78536;SHT31;67829;51.968;5.684;2024-02-15T15:51:32;17.2;68.5
78536;SHT31;67829;51.968;5.684;2024-02-15T15:54:01;17.2;68.5
78536;SHT31;67829;51.968;5.684;2024-02-15T15:56:34;17.2;68.6
78536;SHT31;67829;51.968;5.684;2024-02-15T15:59:02;17.2;68.4
78536;SHT31;67829;51.968;5.684;2024-02-15T16:01:32;17.2;68.4
78536;SHT31;67829;51.968;5.684;2024-02-15T16:04:02;17.2;68.3
78536;SHT31;67829;51.968;5.684;2024-02-15T16:06:31;17.1;67.8
78536;SHT31;67829;51.968;5.684;2024-02-15T16:09:00;17.1;67.9
78536;SHT31;67829;51.968;5.684;2024-02-15T16:11:30;17.1;68.1
78536;SHT31;67829;51.968;5.684;2024-02-15T16:13:59;17.1;67.9
78536;SHT31;67829;51.968;5.684;2024-02-15T16:16:28;17.1;67.6
78536;SHT31;67829;51.968;5.684;2024-02-15T16:18:57;17.1;67.4
78536;SHT31;67829;51.968;5.684;2024-02-15T16:21:26;17.0;67.5
78536;SHT31;67829;51.968;5.684;2024-02-15T16:23:55;17.0;67.3
78536;SHT31;67829;51.968;5.684;2024-02-15T16:26:23;17.0;67.3